Latest Coastal Weather Observations for Dunalley

IDT60701

Issued at 7:12 am EDT Thursday 29 January 2015 (issued every 10 minutes, with the page automatically refreshed every 10 minutes)

About coastal observations | Map of coastal stations | Coastal observations for TAS | Marine services | Other Formats
Station Details ID: 094254 Name: DUNALLEY (STROUD POINT) Lat: -42.90 Lon: 147.79 Height: 12.43 m
Data from the previous 72 hours. | See also: Recent months at Dunalley
Date/Time
EDT
Temp

°C
Wind Pressure Rain
since 9am
mm
Weather Cloud Vis
km
Sea
Height
m
Swell
Dir
 
Speed
knots
Gust
knots
hPa Trend Height
m
Period
s
Dir
29/07:00am 13.2 S 11 14 1024.6 - 0.4 - - - - - - -
29/06:30am 13.1 S 10 13 1024.5 - 0.4 - - - - - - -
29/06:00am 13.0 SSE 9 12 1024.6 - 0.4 - - - - - - -
29/05:30am 12.9 SSE 9 13 1024.5 - 0.4 - - - - - - -
29/05:00am 13.0 S 10 13 1024.3 - 0.4 - - - - - - -
29/04:30am 13.1 SSE 11 14 1024.3 - 0.4 - - - - - - -
29/04:00am 12.8 S 8 11 1024.2 - 0.4 - - - - - - -
29/03:30am 13.0 SSE 9 13 1024.4 - 0.4 - - - - - - -
29/03:00am 12.9 SE 8 14 1024.5 - 0.4 - - - - - - -
29/02:30am 12.9 SE 11 13 1024.6 - 0.4 - - - - - - -
29/02:00am 12.9 SSE 10 13 1024.8 - 0.4 - - - - - - -
29/01:30am 12.4 SE 10 14 1025.0 - 0.2 - - - - - - -
29/01:00am 12.5 SE 9 11 1025.1 - 0.2 - - - - - - -
29/12:30am 12.6 SSE 9 12 1025.3 - 0.0 - - - - - - -
29/12:00am 12.5 SE 5 7 1025.4 - 0.0 - - - - - - -
 
Date/Time
EDT
Temp

°C
Wind Pressure Rain
since 9am
mm
Weather Cloud Vis
km
Sea
Height
m
Swell
Dir
 
Speed
knots
Gust
knots
hPa Trend Height
m
Period
s
Dir
28/11:30pm 12.1 SSE 10 12 1025.5 - 0.0 - - - - - - -
28/11:00pm 12.8 S 16 20 1025.8 - 0.0 - - - - - - -
28/10:30pm 13.3 SSE 9 15 1025.8 - 0.0 - - - - - - -
28/10:00pm 13.3 SE 9 12 1026.0 - 0.0 - - - - - - -
28/09:30pm 13.5 SSE 9 13 1025.9 - 0.0 - - - - - - -
28/09:00pm 13.5 SSE 14 18 1025.7 - 0.0 - - - - - - -
28/08:30pm 13.2 SSE 12 16 1025.5 - 0.0 - - - - - - -
28/08:00pm 13.7 S 14 19 1025.3 - 0.0 - - - - - - -
28/07:30pm 14.0 SSE 11 15 1025.2 - 0.0 - - - - - - -
28/07:00pm 14.0 SE 7 11 1025.0 - 0.0 - - - - - - -
28/06:30pm 13.7 ESE 7 9 1025.1 - 0.0 - - - - - - -
28/06:00pm 14.1 SE 8 12 1025.0 - 0.0 - - - - - - -
28/05:30pm 13.9 SE 11 16 1024.9 - 0.0 - - - - - - -
28/05:00pm 14.6 S 15 20 1024.7 - 0.0 - - - - - - -
28/04:30pm 14.5 SSE 9 15 1024.8 - 0.0 - - - - - - -
28/04:00pm 14.4 SE 12 15 1024.8 - 0.0 - - - - - - -
28/03:30pm 15.2 SSE 16 20 1024.8 - 0.0 - - - - - - -
28/03:00pm 16.0 SSE 14 19 1024.9 - 0.0 - - - - - - -
28/02:30pm 15.6 SSE 14 19 1024.9 - 0.0 - - - - - - -
28/02:00pm 15.3 SSE 12 17 1024.7 - 0.0 - - - - - - -
28/01:30pm 16.8 S 15 18 1024.7 - 0.0 - - - - - - -
28/01:00pm 15.7 S 10 13 1024.7 - 0.0 - - - - - - -
28/12:30pm 14.4 S 11 15 1025.0 - 0.0 - - - - - - -
28/12:00pm 13.4 SSW 12 17 1025.0 - 0.0 - - - - - - -
28/11:30am 14.2 S 14 17 1024.8 - 0.0 - - - - - - -
28/11:00am 14.7 SSE 13 17 1024.7 - 0.0 - - - - - - -
28/10:30am 14.7 SSE 11 14 1024.7 - 0.0 - - - - - - -
28/10:00am 14.3 SSE 10 17 1024.4 - 0.0 - - - - - - -
28/09:30am 13.4 S 9 12 1024.2 - 0.0 - - - - - - -
28/09:00am 13.0 S 7 9 1023.9 - 2.2 - - - - - - -
28/08:30am 12.3 SSW 9 11 1023.8 - 2.2 - - - - - - -
28/08:00am 11.8 SSW 8 10 1023.4 - 2.2 - - - - - - -
28/07:30am 12.2 SSW 16 22 1023.0 - 1.6 - - - - - - -
28/07:26am 12.2 SSW 11 22 1022.9 - 1.4 - - - - - - -
28/07:00am 11.6 SSW 7 8 1022.7 - 1.4 - - - - - - -
28/06:30am 12.1 SSE 9 14 1022.5 - 1.0 - - - - - - -
28/06:00am 12.1 SSW 10 13 1022.1 - 1.0 - - - - - - -
28/05:30am 12.1 SSW 13 16 1022.0 - 1.0 - - - - - - -
28/05:00am 11.6 SSW 11 15 1021.7 - 1.0 - - - - - - -
28/04:30am 13.1 SW 13 15 1021.3 - 0.0 - - - - - - -
28/04:00am 12.9 SW 12 15 1021.4 - 0.0 - - - - - - -
28/03:30am 13.0 SW 12 16 1021.6 - 0.0 - - - - - - -
28/03:00am 13.3 SSW 14 16 1021.6 - 0.0 - - - - - - -
28/02:30am 13.4 SSW 15 17 1021.8 - 0.0 - - - - - - -
28/02:00am 13.4 SSW 14 17 1021.8 - 0.0 - - - - - - -
28/01:30am 13.6 SW 13 16 1021.8 - 0.0 - - - - - - -
28/01:00am 13.8 SSW 14 17 1021.7 - 0.0 - - - - - - -
28/12:30am 13.8 SSW 17 20 1021.7 - 0.0 - - - - - - -
28/12:00am 13.8 SSW 15 20 1021.7 - 0.0 - - - - - - -
 
Date/Time
EDT
Temp

°C
Wind Pressure Rain
since 9am
mm
Weather Cloud Vis
km
Sea
Height
m
Swell
Dir
 
Speed
knots
Gust
knots
hPa Trend Height
m
Period
s
Dir
27/11:30pm 14.1 SSW 16 20 1021.6 - 0.0 - - - - - - -
27/11:00pm 14.1 S 15 20 1021.5 - 0.0 - - - - - - -
27/10:30pm 13.8 SSW 12 15 1021.5 - 0.0 - - - - - - -
27/10:00pm 13.7 SSW 12 16 1021.4 - 0.0 - - - - - - -
27/09:30pm 14.1 S 14 16 1020.9 - 0.0 - - - - - - -
27/09:00pm 14.2 SSW 14 19 1020.7 - 0.0 - - - - - - -
27/08:30pm 14.4 SSW 14 17 1020.4 - 0.0 - - - - - - -
27/08:00pm 14.6 SSW 15 19 1020.0 - 0.0 - - - - - - -
27/07:30pm 14.7 SSW 16 20 1019.6 - 0.0 - - - - - - -
27/07:00pm 14.8 SSW 15 19 1019.3 - 0.0 - - - - - - -
27/06:30pm 15.2 SSW 15 19 1018.9 - 0.0 - - - - - - -
27/06:00pm 15.8 SSW 14 18 1018.6 - 0.0 - - - - - - -
27/05:30pm 15.8 SSW 12 15 1018.6 - 0.0 - - - - - - -
27/05:00pm 16.4 SSW 13 15 1018.4 - 0.0 - - - - - - -
27/04:30pm 16.2 SSE 10 13 1018.3 - 0.0 - - - - - - -
27/04:00pm 17.6 SSE 7 10 1018.0 - 0.0 - - - - - - -
27/03:30pm 17.3 SSE 8 10 1017.9 - 0.0 - - - - - - -
27/03:00pm 17.4 SSE 8 11 1017.8 - 0.0 - - - - - - -
27/02:30pm 17.4 S 11 14 1017.8 - 0.0 - - - - - - -
27/02:00pm 18.4 ESE 7 11 1017.9 - 0.0 - - - - - - -
27/01:30pm 17.8 E 7 9 1017.8 - 0.0 - - - - - - -
27/01:00pm 16.3 E 5 7 1017.9 - 0.0 - - - - - - -
27/12:30pm 16.8 E 4 6 1017.8 - 0.0 - - - - - - -
27/12:00pm 16.1 E 4 6 1018.0 - 0.0 - - - - - - -
27/11:30am 15.5 E 3 4 1018.1 - 0.0 - - - - - - -
27/11:00am 16.4 E 2 3 1018.1 - 0.0 - - - - - - -
27/10:30am 15.2 E 4 7 1018.1 - 0.0 - - - - - - -
27/10:00am 15.5 E 5 7 1018.0 - 0.0 - - - - - - -
27/09:30am 14.2 E 3 4 1017.9 - 0.0 - - - - - - -
27/09:00am 14.5 E 3 6 1017.8 - 4.2 - - - - - - -
27/08:30am 13.0 CALM 0 2 1017.8 - 4.2 - - - - - - -
27/08:00am 12.6 E 1 2 1017.5 - 4.2 - - - - - - -
27/07:30am 12.5 ENE 8 10 1017.1 - 4.0 - - - - - - -
27/07:00am 12.1 ENE 5 7 1016.7 - 4.0 - - - - - - -
27/06:30am 11.7 ENE 4 8 1016.6 - 4.0 - - - - - - -
27/06:00am 12.5 ENE 1 2 1016.3 - 3.8 - - - - - - -
27/05:30am 12.4 ENE 1 2 1016.3 - 3.8 - - - - - - -
27/05:00am 12.2 CALM 0 1 1016.2 - 3.8 - - - - - - -
27/04:30am 12.2 ENE 1 2 1016.3 - 3.8 - - - - - - -
27/04:00am 12.4 ENE 2 3 1016.5 - 3.2 - - - - - - -
27/03:30am 12.3 ENE 3 5 1016.8 - 3.0 - - - - - - -
27/03:00am 12.4 ENE 5 7 1017.1 - 3.0 Recent precip. - - - - - -
27/02:30am 12.4 ENE 3 5 1017.1 - 3.0 - - - - - - -
27/02:00am 12.2 ENE 2 3 1017.3 - 2.6 - - - - - - -
27/01:30am 12.5 ENE 3 4 1017.3 - 1.8 - - - - - - -
27/01:00am 12.5 ENE 2 3 1017.5 - 1.6 - - - - - - -
27/12:30am 12.2 ENE 3 4 1017.5 - 1.4 - - - - - - -
27/12:00am 12.7 ENE 3 5 1017.6 - 0.4 Recent precip. - - - - - -
 
Date/Time
EDT
Temp

°C
Wind Pressure Rain
since 9am
mm
Weather Cloud Vis
km
Sea
Height
m
Swell
Dir
 
Speed
knots
Gust
knots
hPa Trend Height
m
Period
s
Dir
26/11:30pm 12.7 ENE 3 5 1017.5 - 0.0 - - - - - - -
26/11:00pm 13.4 ENE 4 7 1017.4 - 0.0 - - - - - - -
26/10:30pm 13.8 CALM 0 0 1017.4 - 0.0 - - - - - - -
26/10:00pm 13.9 ENE 7 9 1017.3 - 0.0 - - - - - - -
26/09:30pm 14.5 NNE 9 11 1017.0 - 0.0 - - - - - - -
26/09:00pm 14.7 NNE 9 11 1016.7 - 0.0 - - - - - - -
26/08:30pm 14.7 NE 9 14 1016.4 - 0.0 - - - - - - -
26/08:00pm 15.3 ESE 6 8 1016.0 - 0.0 - - - - - - -
26/07:30pm 17.1 SW 12 14 1015.0 - 0.0 - - - - - - -
26/07:00pm 16.9 SW 16 19 1014.5 - 0.0 - - - - - - -
26/06:30pm 16.3 SSW 10 12 1014.4 - 0.0 - - - - - - -
26/06:00pm 17.0 SSW 10 13 1014.2 - 0.0 - - - - - - -
26/05:30pm 16.5 SSW 12 15 1014.1 - 0.0 - - - - - - -
26/05:00pm 16.0 SSW 13 15 1014.2 - 0.0 - - - - - - -
26/04:30pm 16.8 SSW 17 21 1014.1 - 0.0 - - - - - - -
26/04:00pm 16.4 SSW 12 15 1013.9 - 0.0 - - - - - - -
26/03:30pm 16.6 SSW 13 17 1013.5 - 0.0 - - - - - - -
26/03:00pm 18.0 SW 16 22 1013.5 - 0.0 - - - - - - -
26/02:30pm 17.8 SW 16 19 1013.4 - 0.0 - - - - - - -
26/02:00pm 17.8 SW 17 20 1013.4 - 0.0 - - - - - - -
26/01:30pm 17.7 WSW 19 23 1013.4 - 0.0 - - - - - - -
26/01:00pm 16.9 SW 15 19 1013.5 - 0.0 - - - - - - -
26/12:30pm 16.6 WSW 19 23 1013.4 - 0.0 - - - - - - -
26/12:00pm 16.6 WSW 18 22 1013.3 - 0.0 - - - - - - -
26/11:30am 16.1 WSW 15 19 1013.1 - 0.0 - - - - - - -
26/11:00am 16.3 WSW 13 17 1013.1 - 0.0 - - - - - - -
26/10:30am 15.5 WSW 13 16 1012.8 - 0.0 - - - - - - -
26/10:00am 14.7 WSW 11 17 1012.6 - 0.0 - - - - - - -
26/09:30am 13.9 W 12 14 1012.5 - 0.0 - - - - - - -
26/09:00am 13.8 W 11 16 1012.3 - 4.4 - - - - - - -
26/08:30am 12.5 WNW 12 17 1011.6 - 4.4 - - - - - - -
26/08:00am 12.3 WNW 11 16 1011.2 - 4.4 - - - - - - -
26/07:30am 12.2 WNW 13 19 1010.5 - 4.4 - - - - - - -

Other Formats:

Comma delimited format used in spreadsheet applications
http://www.bom.gov.au/fwo/IDT60701/IDT60701.94951.axf

JavaScript Object Notation format (JSON) in row-major order
http://www.bom.gov.au/fwo/IDT60701/IDT60701.94951.json